sensor_id;sensor_type;location;lat;lon;timestamp;pressure;altitude;pressure_sealevel;temperature;humidity
72308;BME280;60257;42.638;23.376;2022-11-11T00:00:30;95730.69;;;6.93;77.90
72308;BME280;60257;42.638;23.376;2022-11-11T00:02:56;95726.75;;;7.00;77.83
72308;BME280;60257;42.638;23.376;2022-11-11T00:05:22;95735.22;;;6.98;77.76
72308;BME280;60257;42.638;23.376;2022-11-11T00:07:48;95725.75;;;6.95;77.67
72308;BME280;60257;42.638;23.376;2022-11-11T00:10:14;95720.88;;;6.92;77.69
72308;BME280;60257;42.638;23.376;2022-11-11T00:12:39;95719.78;;;6.93;77.89
72308;BME280;60257;42.638;23.376;2022-11-11T00:15:05;95726.84;;;6.94;77.90
72308;BME280;60257;42.638;23.376;2022-11-11T00:17:32;95722.50;;;6.93;78.05
72308;BME280;60257;42.638;23.376;2022-11-11T00:20:16;95716.81;;;6.90;78.15
72308;BME280;60257;42.638;23.376;2022-11-11T00:23:01;95723.59;;;6.92;77.72
72308;BME280;60257;42.638;23.376;2022-11-11T00:25:45;95720.06;;;6.92;77.72
72308;BME280;60257;42.638;23.376;2022-11-11T00:28:11;95721.97;;;6.91;77.66
72308;BME280;60257;42.638;23.376;2022-11-11T00:30:36;95723.06;;;6.90;77.82
72308;BME280;60257;42.638;23.376;2022-11-11T00:33:02;95729.44;;;6.86;77.84
72308;BME280;60257;42.638;23.376;2022-11-11T00:35:27;95726.72;;;6.86;78.01
72308;BME280;60257;42.638;23.376;2022-11-11T00:38:13;95723.13;;;6.72;79.02
72308;BME280;60257;42.638;23.376;2022-11-11T00:40:58;95723.50;;;6.65;79.96
72308;BME280;60257;42.638;23.376;2022-11-11T00:43:24;95720.97;;;6.69;80.66
72308;BME280;60257;42.638;23.376;2022-11-11T00:45:50;95722.44;;;6.80;81.25
72308;BME280;60257;42.638;23.376;2022-11-11T00:48:15;95716.56;;;7.05;81.51
72308;BME280;60257;42.638;23.376;2022-11-11T00:50:59;95715.00;;;7.31;81.48
72308;BME280;60257;42.638;23.376;2022-11-11T00:53:28;95721.41;;;7.54;81.27
72308;BME280;60257;42.638;23.376;2022-11-11T00:55:55;95717.69;;;7.78;80.75
72308;BME280;60257;42.638;23.376;2022-11-11T00:58:21;95717.69;;;7.78;80.19
72308;BME280;60257;42.638;23.376;2022-11-11T01:00:47;95707.66;;;7.87;80.37
72308;BME280;60257;42.638;23.376;2022-11-11T01:03:14;95706.66;;;7.96;80.60
72308;BME280;60257;42.638;23.376;2022-11-11T01:05:40;95706.53;;;8.01;80.39
72308;BME280;60257;42.638;23.376;2022-11-11T01:08:06;95709.06;;;8.11;80.20
72308;BME280;60257;42.638;23.376;2022-11-11T01:10:31;95708.13;;;8.16;80.21
72308;BME280;60257;42.638;23.376;2022-11-11T01:13:05;95703.47;;;8.17;80.10
72308;BME280;60257;42.638;23.376;2022-11-11T01:15:40;95702.66;;;8.16;80.30
72308;BME280;60257;42.638;23.376;2022-11-11T01:18:08;95697.22;;;8.16;80.31
72308;BME280;60257;42.638;23.376;2022-11-11T01:20:34;95698.09;;;8.25;80.12
72308;BME280;60257;42.638;23.376;2022-11-11T01:23:03;95690.91;;;8.29;80.22
72308;BME280;60257;42.638;23.376;2022-11-11T01:25:36;95697.16;;;8.30;80.23
72308;BME280;60257;42.638;23.376;2022-11-11T01:28:03;95696.34;;;8.29;80.24
72308;BME280;60257;42.638;23.376;2022-11-11T01:30:31;95700.84;;;8.25;80.57
72308;BME280;60257;42.638;23.376;2022-11-11T01:32:57;95697.28;;;8.25;80.58
72308;BME280;60257;42.638;23.376;2022-11-11T01:35:23;95704.09;;;8.27;80.68
72308;BME280;60257;42.638;23.376;2022-11-11T01:37:48;95692.75;;;8.20;80.50
72308;BME280;60257;42.638;23.376;2022-11-11T01:40:14;95700.03;;;8.25;80.82
72308;BME280;60257;42.638;23.376;2022-11-11T01:48:40;95683.63;;;8.38;80.29
72308;BME280;60257;42.638;23.376;2022-11-11T01:51:43;95692.03;;;8.42;80.25
72308;BME280;60257;42.638;23.376;2022-11-11T01:54:21;95704.88;;;8.41;80.40
72308;BME280;60257;42.638;23.376;2022-11-11T01:56:55;95703.88;;;8.37;80.43
72308;BME280;60257;42.638;23.376;2022-11-11T01:59:23;95709.34;;;8.37;80.40
72308;BME280;60257;42.638;23.376;2022-11-11T02:01:49;95704.66;;;8.38;80.51
72308;BME280;60257;42.638;23.376;2022-11-11T02:04:15;95699.03;;;8.34;80.52
72308;BME280;60257;42.638;23.376;2022-11-11T02:07:03;95705.31;;;8.35;80.41
72308;BME280;60257;42.638;23.376;2022-11-11T02:09:30;95709.66;;;8.36;80.88
72308;BME280;60257;42.638;23.376;2022-11-11T02:11:57;95712.88;;;8.38;80.64
72308;BME280;60257;42.638;23.376;2022-11-11T02:14:49;95707.22;;;8.70;80.11
72308;BME280;60257;42.638;23.376;2022-11-11T02:17:16;95720.19;;;8.65;80.02
72308;BME280;60257;42.638;23.376;2022-11-11T02:19:49;95710.69;;;8.62;80.27
72308;BME280;60257;42.638;23.376;2022-11-11T02:22:33;95710.97;;;8.61;80.66
72308;BME280;60257;42.638;23.376;2022-11-11T02:25:03;95713.53;;;8.57;80.59
72308;BME280;60257;42.638;23.376;2022-11-11T02:27:29;95718.19;;;8.57;80.86
72308;BME280;60257;42.638;23.376;2022-11-11T02:29:58;95713.16;;;8.50;80.83
72308;BME280;60257;42.638;23.376;2022-11-11T02:32:25;95713.34;;;8.54;81.05
72308;BME280;60257;42.638;23.376;2022-11-11T02:34:51;95713.34;;;8.54;81.03
72308;BME280;60257;42.638;23.376;2022-11-11T02:37:21;95713.47;;;8.48;80.87
72308;BME280;60257;42.638;23.376;2022-11-11T02:39:49;95705.34;;;8.57;80.88
72308;BME280;60257;42.638;23.376;2022-11-11T02:42:18;95705.50;;;8.61;80.65
72308;BME280;60257;42.638;23.376;2022-11-11T02:44:45;95716.78;;;8.59;80.95
72308;BME280;60257;42.638;23.376;2022-11-11T02:47:11;95714.06;;;8.59;80.98
72308;BME280;60257;42.638;23.376;2022-11-11T02:49:36;95712.44;;;8.58;80.98
72308;BME280;60257;42.638;23.376;2022-11-11T02:52:02;95712.09;;;8.60;80.85
72308;BME280;60257;42.638;23.376;2022-11-11T02:54:27;95710.59;;;8.54;81.05
72308;BME280;60257;42.638;23.376;2022-11-11T02:56:53;95708.88;;;8.58;81.06
72308;BME280;60257;42.638;23.376;2022-11-11T02:59:35;95716.28;;;8.57;80.96
72308;BME280;60257;42.638;23.376;2022-11-11T03:02:02;95719.00;;;8.57;81.14
72308;BME280;60257;42.638;23.376;2022-11-11T03:04:27;95709.69;;;8.58;81.07
72308;BME280;60257;42.638;23.376;2022-11-11T03:06:53;95716.97;;;8.63;81.07
72308;BME280;60257;42.638;23.376;2022-11-11T03:09:18;95718.44;;;8.69;80.78
72308;BME280;60257;42.638;23.376;2022-11-11T03:11:44;95723.31;;;8.72;80.88
72308;BME280;60257;42.638;23.376;2022-11-11T03:14:09;95718.81;;;8.76;80.00
72308;BME280;60257;42.638;23.376;2022-11-11T03:16:35;95722.81;;;8.70;77.28
72308;BME280;60257;42.638;23.376;2022-11-11T03:19:19;95722.56;;;8.58;75.15
72308;BME280;60257;42.638;23.376;2022-11-11T03:21:45;95731.50;;;8.49;74.61
72308;BME280;60257;42.638;23.376;2022-11-11T03:24:10;95730.00;;;8.43;74.60
72308;BME280;60257;42.638;23.376;2022-11-11T03:26:36;95734.44;;;8.39;73.62
72308;BME280;60257;42.638;23.376;2022-11-11T03:29:02;95728.38;;;8.01;75.08
72308;BME280;60257;42.638;23.376;2022-11-11T03:31:28;95728.38;;;8.01;75.14
72308;BME280;60257;42.638;23.376;2022-11-11T03:33:53;95722.03;;;7.79;75.45
72308;BME280;60257;42.638;23.376;2022-11-11T03:36:19;95730.72;;;7.81;75.75
72308;BME280;60257;42.638;23.376;2022-11-11T03:38:44;95721.22;;;7.78;76.04
72308;BME280;60257;42.638;23.376;2022-11-11T03:41:10;95712.09;;;7.83;75.81
72308;BME280;60257;42.638;23.376;2022-11-11T03:43:35;95723.84;;;7.83;75.77
72308;BME280;60257;42.638;23.376;2022-11-11T03:46:02;95724.06;;;7.87;75.94
72308;BME280;60257;42.638;23.376;2022-11-11T03:48:31;95725.88;;;7.78;76.24
72308;BME280;60257;42.638;23.376;2022-11-11T03:50:56;95735.28;;;7.85;76.15
72308;BME280;60257;42.638;23.376;2022-11-11T03:53:22;95737.41;;;7.88;75.88
72308;BME280;60257;42.638;23.376;2022-11-11T03:55:48;95714.63;;;7.93;75.88
72308;BME280;60257;42.638;23.376;2022-11-11T03:58:15;95716.38;;;7.89;76.09
72308;BME280;60257;42.638;23.376;2022-11-11T04:00:42;95736.31;;;7.89;76.38
72308;BME280;60257;42.638;23.376;2022-11-11T04:05:55;95720.00;;;8.11;80.74
72308;BME280;60257;42.638;23.376;2022-11-11T04:08:39;95715.81;;;8.28;80.66
72308;BME280;60257;42.638;23.376;2022-11-11T04:11:40;95714.56;;;8.47;81.90
72308;BME280;60257;42.638;23.376;2022-11-11T04:14:09;95697.81;;;8.85;82.18
72308;BME280;60257;42.638;23.376;2022-11-11T04:16:53;95702.63;;;9.02;82.31
72308;BME280;60257;42.638;23.376;2022-11-11T04:19:19;95708.81;;;9.16;82.27
72308;BME280;60257;42.638;23.376;2022-11-11T04:22:03;95719.81;;;9.24;82.23
72308;BME280;60257;42.638;23.376;2022-11-11T04:24:29;95706.13;;;9.24;82.11
72308;BME280;60257;42.638;23.376;2022-11-11T04:27:16;95708.63;;;9.35;81.99
72308;BME280;60257;42.638;23.376;2022-11-11T04:29:42;95703.81;;;9.40;81.78
72308;BME280;60257;42.638;23.376;2022-11-11T04:34:58;95710.00;;;9.54;81.35
72308;BME280;60257;42.638;23.376;2022-11-11T04:37:26;95716.47;;;9.58;81.37
72308;BME280;60257;42.638;23.376;2022-11-11T04:39:52;95721.66;;;9.60;81.24
72308;BME280;60257;42.638;23.376;2022-11-11T04:42:36;95722.81;;;9.68;80.69
72308;BME280;60257;42.638;23.376;2022-11-11T04:45:04;95704.91;;;9.70;80.45
72308;BME280;60257;42.638;23.376;2022-11-11T04:50:41;95720.28;;;9.80;80.20
72308;BME280;60257;42.638;23.376;2022-11-11T04:53:11;95724.78;;;9.84;79.91
72308;BME280;60257;42.638;23.376;2022-11-11T04:55:41;95716.63;;;10.01;79.29
72308;BME280;60257;42.638;23.376;2022-11-11T04:58:28;95725.63;;;9.93;79.27
72308;BME280;60257;42.638;23.376;2022-11-11T05:00:53;95713.22;;;9.87;79.70
72308;BME280;60257;42.638;23.376;2022-11-11T05:03:19;95729.50;;;9.92;79.55
72308;BME280;60257;42.638;23.376;2022-11-11T05:05:56;95729.19;;;9.94;79.43
72308;BME280;60257;42.638;23.376;2022-11-11T05:08:48;95731.94;;;9.94;79.27
72308;BME280;60257;42.638;23.376;2022-11-11T05:11:32;95722.91;;;9.93;79.61
72308;BME280;60257;42.638;23.376;2022-11-11T05:14:00;95722.91;;;9.93;79.04
72308;BME280;60257;42.638;23.376;2022-11-11T05:16:46;95715.19;;;9.95;78.85
72308;BME280;60257;42.638;23.376;2022-11-11T05:19:31;95730.84;;;10.03;78.52
72308;BME280;60257;42.638;23.376;2022-11-11T05:22:16;95727.78;;;10.05;78.39
72308;BME280;60257;42.638;23.376;2022-11-11T05:24:43;95737.78;;;10.10;77.98
72308;BME280;60257;42.638;23.376;2022-11-11T05:27:27;95741.00;;;10.03;78.40
72308;BME280;60257;42.638;23.376;2022-11-11T05:29:53;95741.81;;;10.03;78.04
72308;BME280;60257;42.638;23.376;2022-11-11T05:32:20;95734.88;;;10.06;77.77
72308;BME280;60257;42.638;23.376;2022-11-11T05:34:47;95747.47;;;10.16;77.40
72308;BME280;60257;42.638;23.376;2022-11-11T05:37:13;95745.69;;;10.11;77.54
72308;BME280;60257;42.638;23.376;2022-11-11T05:39:38;95753.75;;;10.16;77.33
72308;BME280;60257;42.638;23.376;2022-11-11T05:42:04;95753.28;;;10.14;76.97
72308;BME280;60257;42.638;23.376;2022-11-11T05:44:30;95764.13;;;10.19;77.11
72308;BME280;60257;42.638;23.376;2022-11-11T05:46:55;95758.09;;;10.09;77.37
72308;BME280;60257;42.638;23.376;2022-11-11T05:49:21;95768.56;;;9.98;77.96
72308;BME280;60257;42.638;23.376;2022-11-11T05:51:48;95778.34;;;9.99;78.10
72308;BME280;60257;42.638;23.376;2022-11-11T05:54:13;95781.91;;;9.91;78.43
72308;BME280;60257;42.638;23.376;2022-11-11T05:56:39;95782.22;;;9.89;78.35
72308;BME280;60257;42.638;23.376;2022-11-11T05:59:06;95782.69;;;9.91;78.41
72308;BME280;60257;42.638;23.376;2022-11-11T06:01:32;95786.88;;;9.89;78.57
72308;BME280;60257;42.638;23.376;2022-11-11T06:03:58;95797.16;;;9.83;78.58
72308;BME280;60257;42.638;23.376;2022-11-11T06:06:24;95793.28;;;9.84;78.67
72308;BME280;60257;42.638;23.376;2022-11-11T06:08:50;95803.63;;;9.87;78.60
72308;BME280;60257;42.638;23.376;2022-11-11T06:11:15;95803.00;;;9.90;78.58
72308;BME280;60257;42.638;23.376;2022-11-11T06:13:41;95807.78;;;9.85;78.61
72308;BME280;60257;42.638;23.376;2022-11-11T06:16:07;95807.19;;;9.88;78.75
72308;BME280;60257;42.638;23.376;2022-11-11T06:18:33;95802.00;;;9.86;78.39
72308;BME280;60257;42.638;23.376;2022-11-11T06:20:59;95822.13;;;9.82;78.35
72308;BME280;60257;42.638;23.376;2022-11-11T06:23:26;95815.66;;;9.78;78.60
72308;BME280;60257;42.638;23.376;2022-11-11T06:25:52;95823.06;;;9.77;78.56
72308;BME280;60257;42.638;23.376;2022-11-11T06:31:15;95825.94;;;9.72;78.84
72308;BME280;60257;42.638;23.376;2022-11-11T06:33:42;95825.00;;;9.77;78.43
72308;BME280;60257;42.638;23.376;2022-11-11T06:36:09;95832.66;;;9.88;78.33
72308;BME280;60257;42.638;23.376;2022-11-11T06:38:35;95832.19;;;9.95;78.12
72308;BME280;60257;42.638;23.376;2022-11-11T06:41:00;95824.94;;;9.90;78.29
72308;BME280;60257;42.638;23.376;2022-11-11T06:43:26;95842.19;;;9.99;78.09
72308;BME280;60257;42.638;23.376;2022-11-11T06:45:53;95838.53;;;10.04;77.97
72308;BME280;60257;42.638;23.376;2022-11-11T06:48:19;95842.94;;;10.14;77.39
72308;BME280;60257;42.638;23.376;2022-11-11T06:50:45;95840.81;;;10.11;77.50
72308;BME280;60257;42.638;23.376;2022-11-11T06:53:13;95855.94;;;10.08;78.05
72308;BME280;60257;42.638;23.376;2022-11-11T06:55:39;95842.44;;;10.12;77.91
72308;BME280;60257;42.638;23.376;2022-11-11T06:58:25;95842.44;;;10.12;77.76
72308;BME280;60257;42.638;23.376;2022-11-11T07:00:50;95843.41;;;10.16;77.95
72308;BME280;60257;42.638;23.376;2022-11-11T07:03:18;95843.13;;;10.17;77.57
72308;BME280;60257;42.638;23.376;2022-11-11T07:05:44;95844.13;;;10.21;77.68
72308;BME280;60257;42.638;23.376;2022-11-11T07:08:15;95835.91;;;10.21;77.70
72308;BME280;60257;42.638;23.376;2022-11-11T07:10:46;95828.41;;;10.13;78.08
72308;BME280;60257;42.638;23.376;2022-11-11T07:13:13;95838.19;;;10.28;77.95
72308;BME280;60257;42.638;23.376;2022-11-11T07:15:39;95840.38;;;10.17;78.22
72308;BME280;60257;42.638;23.376;2022-11-11T07:18:05;95842.19;;;10.22;78.35
72308;BME280;60257;42.638;23.376;2022-11-11T07:20:30;95844.75;;;10.18;78.50
72308;BME280;60257;42.638;23.376;2022-11-11T07:22:56;95843.94;;;10.18;78.03
72308;BME280;60257;42.638;23.376;2022-11-11T07:25:22;95854.38;;;10.16;78.11
72308;BME280;60257;42.638;23.376;2022-11-11T07:27:48;95847.59;;;10.13;77.61
72308;BME280;60257;42.638;23.376;2022-11-11T07:30:13;95845.88;;;10.17;77.28
72308;BME280;60257;42.638;23.376;2022-11-11T07:32:50;95864.16;;;10.08;77.57
72308;BME280;60257;42.638;23.376;2022-11-11T07:35:16;95868.97;;;10.02;77.73
72308;BME280;60257;42.638;23.376;2022-11-11T07:37:43;95857.66;;;10.18;77.19
72308;BME280;60257;42.638;23.376;2022-11-11T07:40:11;95868.53;;;10.09;77.38
72308;BME280;60257;42.638;23.376;2022-11-11T07:42:38;95860.59;;;10.21;76.86
72308;BME280;60257;42.638;23.376;2022-11-11T07:45:04;95859.28;;;9.96;77.34
72308;BME280;60257;42.638;23.376;2022-11-11T07:47:30;95881.25;;;10.05;77.52
72308;BME280;60257;42.638;23.376;2022-11-11T07:49:56;95876.72;;;10.00;77.55
72308;BME280;60257;42.638;23.376;2022-11-11T07:52:22;95881.25;;;10.05;77.45
72308;BME280;60257;42.638;23.376;2022-11-11T07:54:49;95877.81;;;9.99;77.26
72308;BME280;60257;42.638;23.376;2022-11-11T07:57:14;95884.25;;;9.95;77.62
72308;BME280;60257;42.638;23.376;2022-11-11T07:59:40;95880.53;;;9.91;77.65
72308;BME280;60257;42.638;23.376;2022-11-11T08:02:09;95884.94;;;10.00;77.57
72308;BME280;60257;42.638;23.376;2022-11-11T08:04:35;95887.06;;;10.03;77.13
72308;BME280;60257;42.638;23.376;2022-11-11T08:07:00;95890.53;;;9.95;77.34
72308;BME280;60257;42.638;23.376;2022-11-11T08:09:26;95890.91;;;10.02;77.00
72308;BME280;60257;42.638;23.376;2022-11-11T08:11:51;95897.06;;;10.08;76.87
72308;BME280;60257;42.638;23.376;2022-11-11T08:14:35;95880.84;;;9.89;77.26
72308;BME280;60257;42.638;23.376;2022-11-11T08:17:00;95886.03;;;9.91;77.70
72308;BME280;60257;42.638;23.376;2022-11-11T08:19:26;95897.59;;;9.88;77.54
72308;BME280;60257;42.638;23.376;2022-11-11T08:21:51;95903.81;;;9.80;77.55
72308;BME280;60257;42.638;23.376;2022-11-11T08:24:17;95904.13;;;9.78;77.96
72308;BME280;60257;42.638;23.376;2022-11-11T08:26:43;95903.38;;;9.86;77.32
72308;BME280;60257;42.638;23.376;2022-11-11T08:29:08;95906.41;;;9.85;77.57
72308;BME280;60257;42.638;23.376;2022-11-11T08:31:34;95908.56;;;9.88;77.35
72308;BME280;60257;42.638;23.376;2022-11-11T08:33:59;95906.94;;;9.87;77.15
72308;BME280;60257;42.638;23.376;2022-11-11T08:36:25;95900.50;;;9.91;76.64
72308;BME280;60257;42.638;23.376;2022-11-11T08:38:51;95911.22;;;10.01;76.72
72308;BME280;60257;42.638;23.376;2022-11-11T08:41:16;95909.66;;;9.87;76.96
72308;BME280;60257;42.638;23.376;2022-11-11T08:43:42;95914.41;;;9.95;76.49
72308;BME280;60257;42.638;23.376;2022-11-11T08:46:08;95906.41;;;9.85;76.92
72308;BME280;60257;42.638;23.376;2022-11-11T08:48:33;95916.19;;;9.99;76.44
72308;BME280;60257;42.638;23.376;2022-11-11T08:50:59;95897.91;;;9.86;76.92
72308;BME280;60257;42.638;23.376;2022-11-11T08:53:25;95897.00;;;9.99;76.62
72308;BME280;60257;42.638;23.376;2022-11-11T08:55:50;95909.72;;;10.18;76.32
72308;BME280;60257;42.638;23.376;2022-11-11T08:58:16;95898.81;;;10.04;76.57
72308;BME280;60257;42.638;23.376;2022-11-11T09:00:41;95907.34;;;10.25;75.93
72308;BME280;60257;42.638;23.376;2022-11-11T09:03:09;95902.22;;;10.32;75.68
72308;BME280;60257;42.638;23.376;2022-11-11T09:05:37;95907.34;;;10.56;74.91
72308;BME280;60257;42.638;23.376;2022-11-11T09:08:04;95898.22;;;10.77;74.23
72308;BME280;60257;42.638;23.376;2022-11-11T09:10:32;95891.09;;;10.76;73.21
72308;BME280;60257;42.638;23.376;2022-11-11T09:12:58;95903.88;;;10.81;73.16
72308;BME280;60257;42.638;23.376;2022-11-11T09:15:24;95897.25;;;10.73;72.81
72308;BME280;60257;42.638;23.376;2022-11-11T09:17:51;95902.84;;;10.60;73.22
72308;BME280;60257;42.638;23.376;2022-11-11T09:20:16;95910.56;;;10.58;73.78
72308;BME280;60257;42.638;23.376;2022-11-11T09:22:44;95912.38;;;10.31;74.46
72308;BME280;60257;42.638;23.376;2022-11-11T09:25:10;95909.88;;;10.44;74.46
72308;BME280;60257;42.638;23.376;2022-11-11T09:27:36;95905.50;;;10.43;74.20
72308;BME280;60257;42.638;23.376;2022-11-11T09:30:01;95896.63;;;10.46;74.11
72308;BME280;60257;42.638;23.376;2022-11-11T09:32:27;95905.06;;;10.49;73.77
72308;BME280;60257;42.638;23.376;2022-11-11T09:34:52;95902.13;;;10.46;74.05
72308;BME280;60257;42.638;23.376;2022-11-11T09:37:20;95897.06;;;10.70;73.10
72308;BME280;60257;42.638;23.376;2022-11-11T09:39:45;95900.97;;;10.86;72.18
72308;BME280;60257;42.638;23.376;2022-11-11T09:42:32;95890.66;;;10.83;71.90
72308;BME280;60257;42.638;23.376;2022-11-11T09:50:40;95878.88;;;11.00;71.21
72308;BME280;60257;42.638;23.376;2022-11-11T09:53:18;95873.09;;;11.01;70.88
72308;BME280;60257;42.638;23.376;2022-11-11T09:55:57;95872.28;;;11.01;70.28
72308;BME280;60257;42.638;23.376;2022-11-11T09:58:30;95870.06;;;11.20;69.27
72308;BME280;60257;42.638;23.376;2022-11-11T10:01:01;95867.75;;;10.96;69.88
72308;BME280;60257;42.638;23.376;2022-11-11T10:03:33;95863.56;;;10.99;69.52
72308;BME280;60257;42.638;23.376;2022-11-11T10:06:10;95865.66;;;11.02;69.16
72308;BME280;60257;42.638;23.376;2022-11-11T10:08:44;95873.44;;;11.26;68.91
72308;BME280;60257;42.638;23.376;2022-11-11T10:11:26;95862.63;;;11.21;68.64
72308;BME280;60257;42.638;23.376;2022-11-11T10:13:55;95867.47;;;11.41;68.19
72308;BME280;60257;42.638;23.376;2022-11-11T10:19:30;95871.69;;;11.81;66.37
72308;BME280;60257;42.638;23.376;2022-11-11T10:22:41;95856.66;;;11.79;66.24
72308;BME280;60257;42.638;23.376;2022-11-11T10:27:39;95866.56;;;12.35;65.09
72308;BME280;60257;42.638;23.376;2022-11-11T10:30:18;95853.41;;;12.41;63.86
72308;BME280;60257;42.638;23.376;2022-11-11T10:32:52;95855.66;;;12.47;63.23
72308;BME280;60257;42.638;23.376;2022-11-11T10:35:21;95851.09;;;12.60;62.88
72308;BME280;60257;42.638;23.376;2022-11-11T10:37:55;95845.91;;;12.58;62.91
72308;BME280;60257;42.638;23.376;2022-11-11T10:40:28;95860.97;;;12.61;63.10
72308;BME280;60257;42.638;23.376;2022-11-11T10:42:58;95856.75;;;12.55;62.75
72308;BME280;60257;42.638;23.376;2022-11-11T10:45:30;95855.63;;;12.01;63.99
72308;BME280;60257;42.638;23.376;2022-11-11T10:48:06;95858.09;;;11.93;64.15
72308;BME280;60257;42.638;23.376;2022-11-11T10:50:43;95863.44;;;11.99;63.72
72308;BME280;60257;42.638;23.376;2022-11-11T11:01:28;95849.84;;;11.85;64.42
72308;BME280;60257;42.638;23.376;2022-11-11T11:04:04;95847.75;;;11.73;64.22
72308;BME280;60257;42.638;23.376;2022-11-11T11:06:36;95849.72;;;11.81;63.69
72308;BME280;60257;42.638;23.376;2022-11-11T11:12:45;95839.81;;;11.98;62.70
72308;BME280;60257;42.638;23.376;2022-11-11T11:15:12;95837.06;;;11.98;62.04
72308;BME280;60257;42.638;23.376;2022-11-11T11:20:15;95836.34;;;12.18;61.28
72308;BME280;60257;42.638;23.376;2022-11-11T11:22:49;95834.38;;;12.27;61.26
72308;BME280;60257;42.638;23.376;2022-11-11T11:25:16;95835.66;;;12.38;60.43
72308;BME280;60257;42.638;23.376;2022-11-11T11:27:43;95820.56;;;12.44;60.24
72308;BME280;60257;42.638;23.376;2022-11-11T11:30:31;95822.50;;;12.44;59.46
72308;BME280;60257;42.638;23.376;2022-11-11T11:32:58;95822.00;;;12.50;59.46
72308;BME280;60257;42.638;23.376;2022-11-11T11:35:36;95821.38;;;12.45;58.70
72308;BME280;60257;42.638;23.376;2022-11-11T11:38:03;95815.56;;;12.46;58.79
72308;BME280;60257;42.638;23.376;2022-11-11T11:40:50;95815.63;;;12.29;58.68
72308;BME280;60257;42.638;23.376;2022-11-11T11:43:32;95821.75;;;12.26;58.17
72308;BME280;60257;42.638;23.376;2022-11-11T11:46:00;95817.84;;;12.36;57.70
72308;BME280;60257;42.638;23.376;2022-11-11T11:56:58;95817.50;;;12.46;55.65
72308;BME280;60257;42.638;23.376;2022-11-11T12:04:59;95822.09;;;12.24;56.94
72308;BME280;60257;42.638;23.376;2022-11-11T12:07:40;95829.06;;;12.22;57.46
72308;BME280;60257;42.638;23.376;2022-11-11T12:21:23;95803.97;;;12.23;57.01
72308;BME280;60257;42.638;23.376;2022-11-11T12:29:33;95798.84;;;12.13;56.78
72308;BME280;60257;42.638;23.376;2022-11-11T12:32:15;95793.84;;;12.15;56.80
72308;BME280;60257;42.638;23.376;2022-11-11T12:43:06;95782.94;;;12.27;56.55
72308;BME280;60257;42.638;23.376;2022-11-11T12:45:51;95787.97;;;12.17;56.90
72308;BME280;60257;42.638;23.376;2022-11-11T13:02:25;95784.13;;;12.09;56.93
72308;BME280;60257;42.638;23.376;2022-11-11T13:15:47;95797.78;;;11.88;58.45
72308;BME280;60257;42.638;23.376;2022-11-11T13:18:18;95794.72;;;11.90;58.51
72308;BME280;60257;42.638;23.376;2022-11-11T13:21:03;95802.97;;;11.81;58.47
72308;BME280;60257;42.638;23.376;2022-11-11T13:23:32;95797.50;;;11.81;58.55
72308;BME280;60257;42.638;23.376;2022-11-11T13:26:05;95798.44;;;11.85;58.70
72308;BME280;60257;42.638;23.376;2022-11-11T13:28:39;95804.59;;;11.82;59.08
72308;BME280;60257;42.638;23.376;2022-11-11T13:33:56;95797.31;;;11.86;58.81
72308;BME280;60257;42.638;23.376;2022-11-11T13:36:26;95796.34;;;11.74;58.71
72308;BME280;60257;42.638;23.376;2022-11-11T13:38:59;95797.69;;;11.76;58.72
72308;BME280;60257;42.638;23.376;2022-11-11T13:41:33;95811.72;;;11.75;59.01
72308;BME280;60257;42.638;23.376;2022-11-11T13:44:03;95803.16;;;11.68;59.01
72308;BME280;60257;42.638;23.376;2022-11-11T13:49:05;95806.22;;;11.57;59.32
72308;BME280;60257;42.638;23.376;2022-11-11T13:51:40;95811.91;;;11.61;59.45
72308;BME280;60257;42.638;23.376;2022-11-11T13:54:29;95808.03;;;11.53;59.44
72308;BME280;60257;42.638;23.376;2022-11-11T13:57:05;95805.28;;;11.53;59.52
72308;BME280;60257;42.638;23.376;2022-11-11T13:59:41;95805.75;;;11.55;60.07
72308;BME280;60257;42.638;23.376;2022-11-11T14:17:58;95798.63;;;11.54;59.90
72308;BME280;60257;42.638;23.376;2022-11-11T14:20:46;95816.72;;;11.55;60.08
72308;BME280;60257;42.638;23.376;2022-11-11T14:25:46;95812.22;;;11.42;60.52
72308;BME280;60257;42.638;23.376;2022-11-11T14:28:25;95823.84;;;11.48;60.68
72308;BME280;60257;42.638;23.376;2022-11-11T14:30:52;95822.91;;;11.44;60.95
72308;BME280;60257;42.638;23.376;2022-11-11T14:49:52;95835.00;;;11.34;62.91
72308;BME280;60257;42.638;23.376;2022-11-11T14:59:59;95839.53;;;11.22;63.81
72308;BME280;60257;42.638;23.376;2022-11-11T15:02:39;95837.91;;;11.12;64.27
72308;BME280;60257;42.638;23.376;2022-11-11T15:05:13;95839.84;;;11.11;64.30
72308;BME280;60257;42.638;23.376;2022-11-11T15:08:00;95841.28;;;11.09;64.45
72308;BME280;60257;42.638;23.376;2022-11-11T15:10:42;95842.59;;;11.11;64.24
72308;BME280;60257;42.638;23.376;2022-11-11T15:15:48;95846.16;;;11.21;65.50
72308;BME280;60257;42.638;23.376;2022-11-11T15:18:38;95855.03;;;11.26;64.71
72308;BME280;60257;42.638;23.376;2022-11-11T15:21:13;95858.44;;;11.14;65.38
72308;BME280;60257;42.638;23.376;2022-11-11T15:24:14;95845.50;;;11.06;65.86
72308;BME280;60257;42.638;23.376;2022-11-11T15:26:49;95856.81;;;11.13;66.13
72308;BME280;60257;42.638;23.376;2022-11-11T15:29:41;95856.47;;;11.06;65.70
72308;BME280;60257;42.638;23.376;2022-11-11T15:37:31;95853.38;;;11.08;65.96
72308;BME280;60257;42.638;23.376;2022-11-11T15:39:57;95839.34;;;11.09;65.48
72308;BME280;60257;42.638;23.376;2022-11-11T15:42:40;95851.78;;;10.98;65.64
72308;BME280;60257;42.638;23.376;2022-11-11T15:47:42;95848.69;;;11.00;65.94
72308;BME280;60257;42.638;23.376;2022-11-11T15:52:58;95849.38;;;11.05;65.24
72308;BME280;60257;42.638;23.376;2022-11-11T15:55:32;95860.34;;;11.05;65.58
72308;BME280;60257;42.638;23.376;2022-11-11T16:00:35;95869.53;;;11.01;65.59
72308;BME280;60257;42.638;23.376;2022-11-11T16:03:01;95866.31;;;10.99;66.15